Погода Ехегнадзорна неделю

Вайоц Дзор область, Армения

16 - 22 июля
  • 16июля
    Сегодня
    +20°
    +37°
    Практически безоблачно
    ВремяПогодаТемператураВлажностьДавлениеВетер, м/сВероятность осадков
    01:00Облачно с прояснениями+26°C54 %669 мм1.1 м/с3 %
    04:00Ясно и безоблачно+22°C63 %669 мм1.5 м/с2 %
    07:00Ясно и безоблачно+22°C58 %669 мм1.4 м/с2 %
    10:00Ясно и безоблачно+30°C34 %670 мм0.4 м/с2 %
    13:00Практически безоблачно+34°C30 %670 мм1.3 м/с2 %
    16:00Небольшая облачность+35°C30 %669 мм1.3 м/с10 %
    19:00Ясно и безоблачно+35°C33 %669 мм0.2 м/с6 %
    22:00Ясно и безоблачно+28°C44 %669 мм1.6 м/с1 %
  • 17июля
    Среда
    +21°
    +38°
    Ясно и безоблачно
    ВремяПогодаТемператураВлажностьДавлениеВетер, м/сВероятность осадков
    01:00Ясно и безоблачно+24°C55 %669 мм1.2 м/с2 %
    04:00Ясно и безоблачно+22°C59 %669 мм1.2 м/с2 %
    07:00Ясно и безоблачно+22°C57 %670 мм1.2 м/с2 %
    10:00Ясно и безоблачно+31°C31 %671 мм0.6 м/с2 %
    13:00Ясно и безоблачно+36°C26 %671 мм1.0 м/с3 %
    16:00Ясно и безоблачно+37°C23 %670 мм0.6 м/с3 %
    19:00Практически безоблачно+36°C27 %670 мм1.8 м/с3 %
    22:00Практически безоблачно+29°C41 %670 мм1.5 м/с1 %
  • 18июля
    Четверг
    +21°
    +36°
    Практически безоблачно
    ВремяПогодаТемператураВлажностьДавлениеВетер, м/сВероятность осадков
    01:00Практически безоблачно+26°C49 %670 мм0.9 м/с2 %
    04:00Ясно и безоблачно+23°C63 %670 мм1.4 м/с6 %
    07:00Ясно и безоблачно+22°C64 %670 мм0.8 м/с3 %
    10:00Практически безоблачно+30°C34 %671 мм1.5 м/с2 %
    13:00Практически безоблачно+35°C24 %670 мм2.3 м/с9 %
    16:00Практически безоблачно+36°C24 %669 мм2.1 м/с17 %
    19:00Практически безоблачно+33°C30 %669 мм2.7 м/с12 %
    22:00Практически безоблачно+28°C48 %669 мм1.5 м/с6 %
  • 19июля
    Пятница
    +21°
    +36°
    Практически безоблачно
    ВремяПогодаТемператураВлажностьДавлениеВетер, м/сВероятность осадков
    01:00Ясно и безоблачно+25°C58 %669 мм1.2 м/с6 %
    04:00Небольшая облачность+22°C69 %668 мм1.3 м/с5 %
    07:00Небольшая облачность+22°C69 %668 мм0.9 м/с16 %
    10:00Практически безоблачно+29°C42 %669 мм0.8 м/с15 %
    13:00Практически безоблачно+34°C29 %669 мм0.9 м/с9 %
    16:00Облачно с прояснениями+35°C29 %668 мм1.6 м/с35 %
    19:00Практически безоблачно+30°C48 %668 мм1.8 м/с36 %
    22:00Ясно и безоблачно+27°C55 %668 мм1.5 м/с14 %
  • 20июля
    Суббота
    +22°
    +36°
    Ясно и безоблачно
    ВремяПогодаТемператураВлажностьДавлениеВетер, м/сВероятность осадков
    01:00Практически безоблачно+24°C65 %668 мм1.1 м/с13 %
    04:00Ясно и безоблачно+22°C72 %667 мм1.1 м/с5 %
    07:00Ясно и безоблачно+22°C68 %667 мм1.3 м/с4 %
    10:00Ясно и безоблачно+29°C42 %668 мм1.3 м/с7 %
    13:00Ясно и безоблачно+34°C32 %668 мм0.5 м/с13 %
    16:00Практически безоблачно+34°C35 %667 мм1.7 м/с28 %
    19:00Небольшая облачность, возможен дождь с грозой+33°C36 %667 мм1.1 м/с45 %
    22:00Облачно с прояснениями+29°C50 %668 мм1.0 м/с25 %
Мы используем cookies
Соглашаюсь